Latest Coastal Weather Observations for Mallacoota

IDV60701

Issued at 8:35 pm EDT Sunday 26 October 2014 (issued every 10 minutes, with the page automatically refreshed every 10 minutes)

About coastal observations | Map of coastal stations | Coastal observations for VIC | Marine services | Other Formats
Station Details ID: 084084 Name: MALLACOOTA Lat: -37.60 Lon: 149.73 Height: 22.0 m
Data from the previous 72 hours. | See also: Recent months at Mallacoota
Date/Time
EDT
Temp

°C
Wind Pressure Rain
since 9am
mm
Weather Cloud Vis
km
Sea
Height
m
Swell
Dir
 
Speed
knots
Gust
knots
hPa Trend Height
m
Period
s
Dir
26/08:30pm 13.3 NW 4 5 1012.8 - 0.2 - - - - - - -
26/08:00pm 13.9 WSW 4 6 1012.9 - 0.2 - - - - - - -
26/07:30pm 14.4 WSW 3 6 1012.4 - 0.2 - - - - - - -
26/07:00pm 15.0 SSW 6 9 1012.4 - 0.2 - - - - - - -
26/06:30pm 15.6 SSW 6 8 1012.2 - 0.2 - - - - - - -
26/06:00pm 16.1 SSW 7 12 1012.4 - 0.2 - - - - - - -
26/05:30pm 17.0 SW 9 15 1012.4 - 0.2 - - - - - - -
26/05:00pm 16.1 SSW 10 15 1011.9 - 0.2 - - - - - - -
26/04:30pm 16.6 S 10 17 1011.4 - 0.2 - - - - - - -
26/04:00pm 16.1 S 10 16 1011.7 - 0.2 - - - - - - -
26/03:30pm 17.1 SSW 6 11 1011.7 - 0.2 - - - - - - -
26/03:00pm 16.2 SW 10 15 1012.0 - 0.2 - - - - - - -
26/02:30pm 16.6 SSW 10 16 1011.9 - 0.2 - - - - - - -
26/02:00pm 16.1 SSW 10 15 1012.4 - 0.2 - - - - - - -
26/01:30pm 15.2 SSW 10 15 1012.6 - 0.2 - - - - - - -
26/01:00pm 16.1 SSW 10 14 1012.4 - 0.2 - - - - - - -
26/12:30pm 15.8 SSW 7 12 1012.3 - 0.2 - - - - - - -
26/12:00pm 15.6 SSW 9 13 1012.5 - 0.2 - - - - - - -
26/11:30am 15.9 SSW 7 11 1012.6 - 0.2 - - - - - - -
26/11:00am 15.6 SW 6 9 1012.5 - 0.2 - - - - - - -
26/10:30am 15.4 S 6 8 1012.5 - 0.2 - - - - - - -
26/10:00am 15.4 S 5 6 1012.6 - 0.2 - - - - - - -
26/09:30am 15.3 SSW 5 8 1012.4 - 0.2 - - - - - - -
26/09:00am 15.2 SSW 4 6 1012.6 - 0.8 - - - - - - -
26/08:30am 15.0 SW 4 5 1012.4 - 0.8 - - - - - - -
26/08:00am 14.9 SW 4 5 1012.3 - 0.6 - - - - - - -
26/07:30am 14.7 W 2 3 1011.9 - 0.6 - - - - - - -
26/07:00am 14.4 WNW 3 4 1011.8 - 0.6 - - - - - - -
26/06:30am 14.3 WSW 1 3 1012.0 - 0.6 - - - - - - -
26/06:00am 14.3 SW 3 5 1012.1 - 0.4 - - - - - - -
26/05:30am 14.3 SW 3 4 1011.7 - 0.4 - - - - - - -
26/05:00am 14.3 SW 3 4 1012.0 - 0.4 - - - - - - -
26/04:30am 14.3 CALM 0 0 1011.9 - 0.4 - - - - - - -
26/04:00am 14.4 CALM 0 0 1011.9 - 0.4 - - - - - - -
26/03:30am 14.4 CALM 0 0 1012.4 - 0.2 - - - - - - -
26/03:00am 14.4 CALM 0 0 1012.8 - 0.2 - - - - - - -
26/02:30am 14.4 CALM 0 0 1013.1 - 0.0 - - - - - - -
26/02:00am 14.3 CALM 0 0 1013.7 - 0.0 - - - - - - -
26/01:30am 14.2 CALM 0 0 1014.1 - 0.0 - - - - - - -
26/01:00am 14.3 CALM 0 0 1014.7 - 0.0 - - - - - - -
26/12:30am 14.3 CALM 0 0 1015.5 - 0.0 - - - - - - -
26/12:00am 14.5 SE 0 0 1015.6 - 0.0 - - - - - - -
 
Date/Time
EDT
Temp

°C
Wind Pressure Rain
since 9am
mm
Weather Cloud Vis
km
Sea
Height
m
Swell
Dir
 
Speed
knots
Gust
knots
hPa Trend Height
m
Period
s
Dir
25/11:30pm 14.5 ESE 2 3 1015.8 - 0.0 - - - - - - -
25/11:00pm 14.5 ESE 3 5 1016.0 - 0.0 - - - - - - -
25/10:30pm 14.7 SSE 1 4 1016.3 - 0.0 - - - - - - -
25/10:00pm 14.7 ESE 3 5 1016.4 - 0.0 - - - - - - -
25/09:30pm 15.1 SE 4 6 1016.6 - 0.0 - - - - - - -
25/09:00pm 15.3 SE 3 5 1016.6 - 0.0 - - - - - - -
25/08:30pm 15.4 CALM 0 0 1016.5 - 0.0 - - - - - - -
25/08:00pm 15.4 SSE 2 4 1016.2 - 0.0 - - - - - - -
25/07:30pm 15.4 SSE 3 6 1015.5 - 0.0 - - - - - - -
25/07:00pm 15.4 S 5 9 1015.6 - 0.0 - - - - - - -
25/06:30pm 15.6 S 4 7 1015.9 - 0.0 - - - - - - -
25/06:00pm 15.9 SSE 4 5 1015.3 - 0.0 - - - - - - -
25/05:30pm 15.9 S 5 8 1015.5 - 0.0 - - - - - - -
25/05:00pm 15.7 S 8 9 1015.0 - 0.0 - - - - - - -
25/04:30pm 15.8 S 8 10 1014.9 - 0.0 - - - - - - -
25/04:00pm 17.0 S 9 12 1015.0 - 0.0 - - - - - - -
25/03:30pm 15.9 S 10 12 1015.4 - 0.0 - - - - - - -
25/03:00pm 16.1 S 12 15 1015.3 - 0.0 - - - - - - -
25/02:30pm 16.6 S 12 18 1015.7 - 0.0 - - - - - - -
25/02:00pm 16.8 S 13 17 1016.0 - 0.0 - - - - - - -
25/01:30pm 16.9 S 14 21 1016.0 - 0.0 - - - - - - -
25/01:00pm 16.5 S 14 19 1016.1 - 0.0 - - - - - - -
25/12:30pm 16.2 S 12 18 1016.4 - 0.0 - - - - - - -
25/12:00pm 16.5 S 9 14 1016.7 - 0.0 - - - - - - -
25/11:30am 17.3 SSW 7 11 1017.0 - 0.0 - - - - - - -
25/11:00am 17.4 SSW 7 11 1017.0 - 0.0 - - - - - - -
25/10:30am 16.7 SW 7 11 1017.1 - 0.0 - - - - - - -
25/10:00am 16.7 SW 7 11 1016.8 - 0.0 - - - - - - -
25/09:30am 16.1 SW 7 11 1017.0 - 0.0 - - - - - - -
25/09:00am 16.1 SW 6 9 1017.0 - 0.0 - - - - - - -
25/08:30am 15.9 SW 5 9 1016.9 - 0.0 - - - - - - -
25/08:00am 15.8 WSW 6 10 1016.8 - 0.0 - - - - - - -
25/07:30am 15.6 SW 6 11 1016.4 - 0.0 - - - - - - -
25/07:00am 15.6 SW 7 12 1016.0 - 0.0 - - - - - - -
25/06:30am 15.9 SW 6 11 1015.8 - 0.0 - - - - - - -
25/06:00am 15.9 SW 7 13 1015.4 - 0.0 - - - - - - -
25/05:30am 15.6 SW 5 8 1014.9 - 0.0 - - - - - - -
25/05:00am 15.5 SW 4 7 1014.4 - 0.0 - - - - - - -
25/04:30am 16.0 W 4 6 1013.9 - 0.0 - - - - - - -
25/04:00am 16.4 W 5 8 1014.0 - 0.0 - - - - - - -
25/03:30am 16.8 WSW 4 7 1013.5 - 0.0 - - - - - - -
25/03:00am 17.8 WSW 7 13 1013.3 - 0.0 - - - - - - -
25/02:30am 17.6 WSW 7 10 1013.2 - 0.0 - - - - - - -
25/02:00am 15.7 WNW 3 6 1012.9 - 0.0 - - - - - - -
25/01:30am 15.6 NW 2 4 1012.8 - 0.0 - - - - - - -
25/01:00am 15.9 CALM 0 2 1012.6 - 0.0 - - - - - - -
25/12:30am 16.1 SSW 3 4 1012.5 - 0.0 - - - - - - -
25/12:00am 17.3 NW 4 5 1012.3 - 0.0 - - - - - - -
 
Date/Time
EDT
Temp

°C
Wind Pressure Rain
since 9am
mm
Weather Cloud Vis
km
Sea
Height
m
Swell
Dir
 
Speed
knots
Gust
knots
hPa Trend Height
m
Period
s
Dir
24/11:30pm 17.1 N 4 5 1012.0 - 0.0 - - - - - - -
24/11:00pm 17.4 N 4 5 1011.9 - 0.0 - - - - - - -
24/10:30pm 17.4 N 3 4 1011.9 - 0.0 - - - - - - -
24/10:00pm 17.8 NNW 3 4 1011.8 - 0.0 - - - - - - -
24/09:30pm 18.6 NNW 4 6 1011.8 - 0.0 - - - - - - -
24/09:00pm 19.3 N 4 6 1011.5 - 0.0 - - - - - - -
24/08:30pm 19.9 N 6 9 1011.2 - 0.0 - - - - - - -
24/08:00pm 20.4 N 6 10 1011.1 - 0.0 - - - - - - -
24/07:30pm 21.1 NNW 6 9 1010.4 - 0.0 - - - - - - -
24/07:00pm 21.7 N 7 11 1010.5 - 0.0 - - - - - - -
24/06:30pm 22.3 N 7 10 1010.3 - 0.0 - - - - - - -
24/06:00pm 23.1 N 5 7 1010.3 - 0.0 - - - - - - -
24/05:30pm 23.7 N 9 14 1009.7 - 0.0 - - - - - - -
24/05:00pm 24.0 NNE 12 16 1009.7 - 0.0 - - - - - - -
24/04:30pm 25.1 NNE 14 21 1009.8 - 0.0 - - - - - - -
24/04:00pm 25.6 NNE 10 15 1009.9 - 0.0 - - - - - - -
24/03:30pm 25.4 NNE 12 17 1010.1 - 0.0 - - - - - - -
24/03:00pm 26.3 NNE 12 17 1010.4 - 0.0 - - - - - - -
24/02:30pm 25.5 NNE 12 17 1010.7 - 0.0 - - - - - - -
24/02:00pm 25.8 NNE 12 18 1011.2 - 0.0 - - - - - - -
24/01:30pm 24.9 NNE 13 20 1011.7 - 0.0 - - - - - - -
24/01:00pm 24.7 NNE 12 18 1012.0 - 0.0 - - - - - - -
24/12:30pm 23.1 NNE 12 17 1012.5 - 0.0 - - - - - - -
24/12:00pm 22.8 NNE 11 14 1013.2 - 0.0 - - - - - - -
24/11:30am 22.5 NE 8 16 1013.7 - 0.0 - - - - - - -
24/11:00am 23.0 NE 8 13 1014.3 - 0.0 - - - - - - -
24/10:30am 21.7 NNE 8 13 1014.9 - 0.0 - - - - - - -
24/10:00am 21.3 NE 7 11 1015.5 - 0.0 - - - - - - -
24/09:30am 20.7 NE 7 10 1015.9 - 0.0 - - - - - - -
24/09:00am 20.3 NNE 8 11 1016.2 - 1.8 - - - - - - -
24/08:30am 19.0 NNE 7 10 1016.6 - 1.8 - - - - - - -
24/08:00am 18.7 NNE 9 12 1016.7 - 1.8 - - - - - - -
24/07:30am 17.9 N 6 9 1016.8 - 1.8 - - - - - - -
24/07:00am 17.5 N 7 10 1016.8 - 1.8 - - - - - - -
24/06:30am 17.0 NNE 4 5 1016.7 - 1.8 - - - - - - -
24/06:00am 17.0 N 5 8 1016.6 - 1.8 - - - - - - -
24/05:30am 16.7 NNE 6 7 1016.5 - 1.8 - - - - - - -
24/05:00am 16.6 NNE 5 7 1016.5 - 0.0 - - - - - - -
24/04:30am 16.6 NNE 5 6 1016.7 - 0.0 - - - - - - -
24/04:00am 16.0 ENE 2 4 1017.1 - 0.0 - - - - - - -
24/03:30am 16.3 NNW 1 4 1017.7 - 0.0 - - - - - - -
24/03:00am 16.4 NNW 3 4 1018.2 - 0.0 - - - - - - -
24/02:30am 16.4 NNW 3 4 1018.3 - 0.0 - - - - - - -
24/02:00am 16.4 N 4 4 1018.6 - 0.0 - - - - - - -
24/01:30am 16.6 N 4 6 1018.9 - 0.0 - - - - - - -
24/01:00am 16.7 NNW 5 7 1019.4 - 0.0 - - - - - - -
24/12:30am 16.7 N 4 6 1019.7 - 0.0 - - - - - - -
24/12:00am 16.7 N 4 6 1019.8 - 0.0 - - - - - - -
 
Date/Time
EDT
Temp

°C
Wind Pressure Rain
since 9am
mm
Weather Cloud Vis
km
Sea
Height
m
Swell
Dir
 
Speed
knots
Gust
knots
hPa Trend Height
m
Period
s
Dir
23/11:30pm 16.5 NNW 3 5 1019.9 - 0.0 - - - - - - -
23/11:00pm 16.5 CALM 0 0 1020.0 - 0.0 - - - - - - -
23/10:30pm 16.4 WNW 2 4 1020.2 - 0.0 - - - - - - -
23/10:00pm 16.1 W 1 4 1020.0 - 0.0 - - - - - - -
23/09:30pm 16.2 SSW 4 5 1019.7 - 0.0 - - - - - - -
23/09:00pm 16.7 NE 3 5 1019.4 - 0.0 - - - - - - -

Other Formats:

Comma delimited format used in spreadsheet applications
http://www.bom.gov.au/fwo/IDV60701/IDV60701.94935.axf

JavaScript Object Notation format (JSON) in row-major order
http://www.bom.gov.au/fwo/IDV60701/IDV60701.94935.json